sensor_id;sensor_type;location;lat;lon;timestamp;pressure;altitude;pressure_sealevel;temperature;humidity
66668;BME280;57205;51.438;-2.006;2023-07-20T00:01:03;101050.16;;;15.32;100.00
66668;BME280;57205;51.438;-2.006;2023-07-20T00:03:29;101034.03;;;15.27;100.00
66668;BME280;57205;51.438;-2.006;2023-07-20T00:05:54;101045.44;;;15.19;100.00
66668;BME280;57205;51.438;-2.006;2023-07-20T00:08:20;101041.16;;;15.13;100.00
66668;BME280;57205;51.438;-2.006;2023-07-20T00:10:45;101036.41;;;15.05;100.00
66668;BME280;57205;51.438;-2.006;2023-07-20T00:13:11;101037.25;;;15.00;100.00
66668;BME280;57205;51.438;-2.006;2023-07-20T00:15:37;101037.84;;;14.92;100.00
66668;BME280;57205;51.438;-2.006;2023-07-20T00:18:04;101048.97;;;14.86;100.00
66668;BME280;57205;51.438;-2.006;2023-07-20T00:20:29;101048.75;;;14.77;100.00
66668;BME280;57205;51.438;-2.006;2023-07-20T00:22:55;101048.78;;;14.72;100.00
66668;BME280;57205;51.438;-2.006;2023-07-20T00:25:22;101039.41;;;14.64;100.00
66668;BME280;57205;51.438;-2.006;2023-07-20T00:27:48;101047.53;;;14.59;100.00
66668;BME280;57205;51.438;-2.006;2023-07-20T00:30:13;101042.44;;;14.58;100.00
66668;BME280;57205;51.438;-2.006;2023-07-20T00:32:39;101045.94;;;14.53;100.00
66668;BME280;57205;51.438;-2.006;2023-07-20T00:35:05;101039.00;;;14.47;100.00
66668;BME280;57205;51.438;-2.006;2023-07-20T00:37:30;101045.75;;;14.45;100.00
66668;BME280;57205;51.438;-2.006;2023-07-20T00:39:56;101043.88;;;14.40;100.00
66668;BME280;57205;51.438;-2.006;2023-07-20T00:42:22;101036.91;;;14.34;100.00
66668;BME280;57205;51.438;-2.006;2023-07-20T00:44:47;101038.56;;;14.30;100.00
66668;BME280;57205;51.438;-2.006;2023-07-20T00:47:13;101049.09;;;14.27;100.00
66668;BME280;57205;51.438;-2.006;2023-07-20T00:49:39;101043.41;;;14.23;100.00
66668;BME280;57205;51.438;-2.006;2023-07-20T00:52:06;101042.09;;;14.21;100.00
66668;BME280;57205;51.438;-2.006;2023-07-20T00:54:32;101048.81;;;14.18;100.00
66668;BME280;57205;51.438;-2.006;2023-07-20T00:57:00;101038.09;;;14.13;100.00
66668;BME280;57205;51.438;-2.006;2023-07-20T00:59:26;101047.28;;;14.07;100.00
66668;BME280;57205;51.438;-2.006;2023-07-20T01:01:52;101047.31;;;14.02;100.00
66668;BME280;57205;51.438;-2.006;2023-07-20T01:04:17;101050.81;;;13.98;100.00
66668;BME280;57205;51.438;-2.006;2023-07-20T01:09:37;101042.81;;;13.78;100.00
66668;BME280;57205;51.438;-2.006;2023-07-20T01:12:22;101034.00;;;13.67;100.00
66668;BME280;57205;51.438;-2.006;2023-07-20T01:14:48;101042.88;;;13.62;100.00
66668;BME280;57205;51.438;-2.006;2023-07-20T01:17:14;101037.22;;;13.59;100.00
66668;BME280;57205;51.438;-2.006;2023-07-20T01:19:40;101037.78;;;13.51;100.00
66668;BME280;57205;51.438;-2.006;2023-07-20T01:23:07;101048.00;;;13.49;100.00
66668;BME280;57205;51.438;-2.006;2023-07-20T01:28:25;101045.38;;;13.34;100.00
66668;BME280;57205;51.438;-2.006;2023-07-20T01:31:27;101049.13;;;13.33;100.00
66668;BME280;57205;51.438;-2.006;2023-07-20T01:33:56;101045.34;;;13.29;100.00
66668;BME280;57205;51.438;-2.006;2023-07-20T01:36:24;101045.38;;;13.24;100.00
66668;BME280;57205;51.438;-2.006;2023-07-20T01:38:51;101041.91;;;13.18;100.00
66668;BME280;57205;51.438;-2.006;2023-07-20T01:41:17;101041.34;;;13.16;100.00
66668;BME280;57205;51.438;-2.006;2023-07-20T01:43:43;101040.28;;;13.12;100.00
66668;BME280;57205;51.438;-2.006;2023-07-20T01:46:09;101041.09;;;13.08;100.00
66668;BME280;57205;51.438;-2.006;2023-07-20T01:48:34;101036.78;;;13.07;100.00
66668;BME280;57205;51.438;-2.006;2023-07-20T01:51:00;101044.03;;;13.06;100.00
66668;BME280;57205;51.438;-2.006;2023-07-20T01:53:25;101044.84;;;13.07;100.00
66668;BME280;57205;51.438;-2.006;2023-07-20T01:55:54;101045.94;;;13.06;100.00
66668;BME280;57205;51.438;-2.006;2023-07-20T01:58:21;101040.53;;;13.01;100.00
66668;BME280;57205;51.438;-2.006;2023-07-20T02:00:46;101039.47;;;12.97;100.00
66668;BME280;57205;51.438;-2.006;2023-07-20T02:03:13;101039.72;;;12.90;100.00
66668;BME280;57205;51.438;-2.006;2023-07-20T02:05:39;101042.69;;;12.84;100.00
66668;BME280;57205;51.438;-2.006;2023-07-20T02:08:04;101041.88;;;12.73;100.00
66668;BME280;57205;51.438;-2.006;2023-07-20T02:10:30;101042.41;;;12.65;100.00
66668;BME280;57205;51.438;-2.006;2023-07-20T02:12:55;101039.97;;;12.58;100.00
66668;BME280;57205;51.438;-2.006;2023-07-20T02:15:21;101039.44;;;12.51;100.00
66668;BME280;57205;51.438;-2.006;2023-07-20T02:17:47;101042.94;;;12.52;100.00
66668;BME280;57205;51.438;-2.006;2023-07-20T02:20:12;101035.13;;;12.50;100.00
66668;BME280;57205;51.438;-2.006;2023-07-20T02:22:38;101039.72;;;12.50;100.00
66668;BME280;57205;51.438;-2.006;2023-07-20T02:25:06;101046.69;;;12.56;100.00
66668;BME280;57205;51.438;-2.006;2023-07-20T02:27:35;101044.25;;;12.49;100.00
66668;BME280;57205;51.438;-2.006;2023-07-20T02:30:01;101041.31;;;12.46;100.00
66668;BME280;57205;51.438;-2.006;2023-07-20T02:32:27;101035.41;;;12.44;100.00
66668;BME280;57205;51.438;-2.006;2023-07-20T02:34:53;101041.31;;;12.41;100.00
66668;BME280;57205;51.438;-2.006;2023-07-20T02:37:18;101037.53;;;12.37;100.00
66668;BME280;57205;51.438;-2.006;2023-07-20T02:39:44;101034.03;;;12.36;100.00
66668;BME280;57205;51.438;-2.006;2023-07-20T02:42:09;101035.66;;;12.37;100.00
66668;BME280;57205;51.438;-2.006;2023-07-20T02:44:35;101034.84;;;12.37;100.00
66668;BME280;57205;51.438;-2.006;2023-07-20T02:47:00;101030.25;;;12.32;100.00
66668;BME280;57205;51.438;-2.006;2023-07-20T02:49:26;101029.72;;;12.30;100.00
66668;BME280;57205;51.438;-2.006;2023-07-20T02:51:52;101027.59;;;12.27;100.00
66668;BME280;57205;51.438;-2.006;2023-07-20T02:54:18;101027.03;;;12.20;100.00
66668;BME280;57205;51.438;-2.006;2023-07-20T02:56:43;101029.13;;;12.13;100.00
66668;BME280;57205;51.438;-2.006;2023-07-20T02:59:09;101035.03;;;12.05;100.00
66668;BME280;57205;51.438;-2.006;2023-07-20T03:01:35;101022.94;;;12.03;100.00
66668;BME280;57205;51.438;-2.006;2023-07-20T03:04:00;101030.72;;;11.99;100.00
66668;BME280;57205;51.438;-2.006;2023-07-20T03:06:26;101029.34;;;11.97;100.00
66668;BME280;57205;51.438;-2.006;2023-07-20T03:08:51;101035.81;;;11.96;100.00
66668;BME280;57205;51.438;-2.006;2023-07-20T03:11:19;101031.75;;;11.93;100.00
66668;BME280;57205;51.438;-2.006;2023-07-20T03:13:45;101023.97;;;11.92;100.00
66668;BME280;57205;51.438;-2.006;2023-07-20T03:16:12;101030.97;;;11.93;100.00
66668;BME280;57205;51.438;-2.006;2023-07-20T03:18:41;101034.16;;;11.90;100.00
66668;BME280;57205;51.438;-2.006;2023-07-20T03:21:08;101040.88;;;11.87;100.00
66668;BME280;57205;51.438;-2.006;2023-07-20T03:23:35;101035.47;;;11.82;100.00
66668;BME280;57205;51.438;-2.006;2023-07-20T03:26:01;101040.81;;;11.77;100.00
66668;BME280;57205;51.438;-2.006;2023-07-20T03:28:27;101033.81;;;11.71;100.00
66668;BME280;57205;51.438;-2.006;2023-07-20T03:30:56;101038.56;;;11.64;100.00
66668;BME280;57205;51.438;-2.006;2023-07-20T03:33:24;101036.94;;;11.58;100.00
66668;BME280;57205;51.438;-2.006;2023-07-20T03:35:50;101032.38;;;11.53;100.00
66668;BME280;57205;51.438;-2.006;2023-07-20T03:38:18;101034.75;;;11.50;100.00
66668;BME280;57205;51.438;-2.006;2023-07-20T03:40:57;101032.03;;;11.45;100.00
66668;BME280;57205;51.438;-2.006;2023-07-20T03:43:24;101034.16;;;11.38;100.00
66668;BME280;57205;51.438;-2.006;2023-07-20T03:45:52;101041.06;;;11.34;100.00
66668;BME280;57205;51.438;-2.006;2023-07-20T03:48:22;101042.41;;;11.31;100.00
66668;BME280;57205;51.438;-2.006;2023-07-20T03:50:50;101036.75;;;11.28;100.00
66668;BME280;57205;51.438;-2.006;2023-07-20T03:53:16;101034.34;;;11.26;100.00
66668;BME280;57205;51.438;-2.006;2023-07-20T03:55:45;101037.28;;;11.25;100.00
66668;BME280;57205;51.438;-2.006;2023-07-20T03:58:12;101037.56;;;11.28;100.00
66668;BME280;57205;51.438;-2.006;2023-07-20T04:00:38;101046.97;;;11.31;100.00
66668;BME280;57205;51.438;-2.006;2023-07-20T04:03:03;101046.41;;;11.29;100.00
66668;BME280;57205;51.438;-2.006;2023-07-20T04:05:29;101037.56;;;11.28;100.00
66668;BME280;57205;51.438;-2.006;2023-07-20T04:07:56;101040.50;;;11.27;100.00
66668;BME280;57205;51.438;-2.006;2023-07-20T04:10:21;101041.31;;;11.27;100.00
66668;BME280;57205;51.438;-2.006;2023-07-20T04:12:47;101036.75;;;11.28;100.00
66668;BME280;57205;51.438;-2.006;2023-07-20T04:15:14;101037.81;;;11.27;100.00
66668;BME280;57205;51.438;-2.006;2023-07-20T04:17:40;101036.47;;;11.24;100.00
66668;BME280;57205;51.438;-2.006;2023-07-20T04:20:08;101041.59;;;11.26;100.00
66668;BME280;57205;51.438;-2.006;2023-07-20T04:22:34;101038.91;;;11.26;100.00
66668;BME280;57205;51.438;-2.006;2023-07-20T04:25:00;101044.00;;;11.27;100.00
66668;BME280;57205;51.438;-2.006;2023-07-20T04:27:26;101036.22;;;11.26;100.00
66668;BME280;57205;51.438;-2.006;2023-07-20T04:29:52;101033.53;;;11.26;100.00
66668;BME280;57205;51.438;-2.006;2023-07-20T04:32:17;101027.38;;;11.25;100.00
66668;BME280;57205;51.438;-2.006;2023-07-20T04:34:43;101031.09;;;11.24;100.00
66668;BME280;57205;51.438;-2.006;2023-07-20T04:37:08;101021.72;;;11.22;100.00
66668;BME280;57205;51.438;-2.006;2023-07-20T04:39:33;101032.19;;;11.23;100.00
66668;BME280;57205;51.438;-2.006;2023-07-20T04:41:59;101026.28;;;11.26;100.00
66668;BME280;57205;51.438;-2.006;2023-07-20T04:44:25;101026.56;;;11.25;100.00
66668;BME280;57205;51.438;-2.006;2023-07-20T04:46:50;101029.03;;;11.31;100.00
66668;BME280;57205;51.438;-2.006;2023-07-20T04:49:16;101024.22;;;11.33;100.00
66668;BME280;57205;51.438;-2.006;2023-07-20T04:51:41;101030.09;;;11.35;100.00
66668;BME280;57205;51.438;-2.006;2023-07-20T04:54:07;101029.34;;;11.40;100.00
66668;BME280;57205;51.438;-2.006;2023-07-20T04:56:32;101030.44;;;11.44;100.00
66668;BME280;57205;51.438;-2.006;2023-07-20T04:58:58;101023.44;;;11.43;100.00
66668;BME280;57205;51.438;-2.006;2023-07-20T05:01:24;101030.47;;;11.49;100.00
66668;BME280;57205;51.438;-2.006;2023-07-20T05:03:49;101032.66;;;11.57;100.00
66668;BME280;57205;51.438;-2.006;2023-07-20T05:06:15;101036.22;;;11.67;100.00
66668;BME280;57205;51.438;-2.006;2023-07-20T05:08:40;101027.41;;;11.72;100.00
66668;BME280;57205;51.438;-2.006;2023-07-20T05:11:06;101032.28;;;11.85;100.00
66668;BME280;57205;51.438;-2.006;2023-07-20T05:13:32;101029.63;;;11.90;100.00
66668;BME280;57205;51.438;-2.006;2023-07-20T05:15:58;101028.03;;;11.99;100.00
66668;BME280;57205;51.438;-2.006;2023-07-20T05:18:23;101033.44;;;12.14;100.00
66668;BME280;57205;51.438;-2.006;2023-07-20T05:20:50;101034.09;;;12.66;100.00
66668;BME280;57205;51.438;-2.006;2023-07-20T05:23:17;101038.84;;;13.65;100.00
66668;BME280;57205;51.438;-2.006;2023-07-20T05:25:43;101018.88;;;14.74;100.00
66668;BME280;57205;51.438;-2.006;2023-07-20T05:28:09;101011.41;;;15.75;100.00
66668;BME280;57205;51.438;-2.006;2023-07-20T05:30:34;101008.03;;;16.44;100.00
66668;BME280;57205;51.438;-2.006;2023-07-20T05:32:59;101001.84;;;16.62;100.00
66668;BME280;57205;51.438;-2.006;2023-07-20T05:35:26;101000.78;;;16.77;100.00
66668;BME280;57205;51.438;-2.006;2023-07-20T05:37:52;100996.78;;;17.20;100.00
66668;BME280;57205;51.438;-2.006;2023-07-20T05:40:17;100998.38;;;18.02;100.00
66668;BME280;57205;51.438;-2.006;2023-07-20T05:42:48;100992.94;;;18.96;100.00
66668;BME280;57205;51.438;-2.006;2023-07-20T05:45:17;100996.66;;;19.78;95.98
66668;BME280;57205;51.438;-2.006;2023-07-20T05:47:43;100996.78;;;20.21;86.44
66668;BME280;57205;51.438;-2.006;2023-07-20T05:50:09;100995.00;;;20.68;82.81
66668;BME280;57205;51.438;-2.006;2023-07-20T05:52:35;100998.69;;;21.35;77.44
66668;BME280;57205;51.438;-2.006;2023-07-20T05:55:00;100995.63;;;22.03;73.81
66668;BME280;57205;51.438;-2.006;2023-07-20T05:57:25;100993.09;;;22.40;69.10
66668;BME280;57205;51.438;-2.006;2023-07-20T05:59:52;100990.28;;;22.69;65.69
66668;BME280;57205;51.438;-2.006;2023-07-20T06:02:18;100991.16;;;22.81;63.64
66668;BME280;57205;51.438;-2.006;2023-07-20T06:04:43;100995.22;;;23.20;62.41
66668;BME280;57205;51.438;-2.006;2023-07-20T06:07:11;100989.34;;;23.54;61.79
66668;BME280;57205;51.438;-2.006;2023-07-20T06:09:36;100997.88;;;23.77;59.66
66668;BME280;57205;51.438;-2.006;2023-07-20T06:12:02;100995.44;;;24.24;59.67
66668;BME280;57205;51.438;-2.006;2023-07-20T06:14:27;100995.63;;;24.58;55.58
66668;BME280;57205;51.438;-2.006;2023-07-20T06:16:53;100989.22;;;24.66;56.30
66668;BME280;57205;51.438;-2.006;2023-07-20T06:19:18;100989.97;;;24.79;54.60
66668;BME280;57205;51.438;-2.006;2023-07-20T06:21:44;100983.91;;;24.30;53.87
66668;BME280;57205;51.438;-2.006;2023-07-20T06:24:11;100985.03;;;24.57;53.47
66668;BME280;57205;51.438;-2.006;2023-07-20T06:26:36;100981.94;;;24.31;54.53
66668;BME280;57205;51.438;-2.006;2023-07-20T06:29:07;100983.56;;;24.59;54.23
66668;BME280;57205;51.438;-2.006;2023-07-20T06:31:34;100985.56;;;24.74;54.05
66668;BME280;57205;51.438;-2.006;2023-07-20T06:34:00;100994.38;;;25.11;52.89
66668;BME280;57205;51.438;-2.006;2023-07-20T06:36:26;100983.16;;;25.00;51.37
66668;BME280;57205;51.438;-2.006;2023-07-20T06:38:52;100991.91;;;25.37;52.18
66668;BME280;57205;51.438;-2.006;2023-07-20T06:41:18;100983.53;;;25.46;50.74
66668;BME280;57205;51.438;-2.006;2023-07-20T06:43:44;100976.69;;;25.24;50.47
66668;BME280;57205;51.438;-2.006;2023-07-20T06:46:10;100989.31;;;25.75;50.10
66668;BME280;57205;51.438;-2.006;2023-07-20T06:48:35;100981.34;;;26.21;49.00
66668;BME280;57205;51.438;-2.006;2023-07-20T06:51:00;100984.53;;;25.88;48.28
66668;BME280;57205;51.438;-2.006;2023-07-20T06:53:26;100984.81;;;26.56;47.15
66668;BME280;57205;51.438;-2.006;2023-07-20T06:55:51;100975.66;;;26.86;45.56
66668;BME280;57205;51.438;-2.006;2023-07-20T06:58:17;100977.13;;;27.26;44.47
66668;BME280;57205;51.438;-2.006;2023-07-20T07:00:44;100978.22;;;27.21;44.25
66668;BME280;57205;51.438;-2.006;2023-07-20T07:03:10;100978.28;;;27.47;43.00
66668;BME280;57205;51.438;-2.006;2023-07-20T07:05:38;100976.38;;;27.29;44.26
66668;BME280;57205;51.438;-2.006;2023-07-20T07:08:06;100972.53;;;27.33;43.25
66668;BME280;57205;51.438;-2.006;2023-07-20T07:10:34;100974.31;;;27.97;42.65
66668;BME280;57205;51.438;-2.006;2023-07-20T07:13:00;100975.78;;;27.91;41.40
66668;BME280;57205;51.438;-2.006;2023-07-20T07:15:27;100966.25;;;28.41;41.01
66668;BME280;57205;51.438;-2.006;2023-07-20T07:17:54;100979.31;;;28.18;40.31
66668;BME280;57205;51.438;-2.006;2023-07-20T07:20:22;100974.16;;;28.13;40.43
66668;BME280;57205;51.438;-2.006;2023-07-20T07:22:50;100979.94;;;28.37;40.65
66668;BME280;57205;51.438;-2.006;2023-07-20T07:25:16;100970.22;;;28.80;40.09
66668;BME280;57205;51.438;-2.006;2023-07-20T07:27:41;100977.06;;;28.93;39.01
66668;BME280;57205;51.438;-2.006;2023-07-20T07:30:07;100974.56;;;28.77;38.66
66668;BME280;57205;51.438;-2.006;2023-07-20T07:32:32;100969.94;;;28.88;38.30
66668;BME280;57205;51.438;-2.006;2023-07-20T07:34:59;100972.69;;;29.29;37.60
66668;BME280;57205;51.438;-2.006;2023-07-20T07:37:25;100970.66;;;29.22;37.92
66668;BME280;57205;51.438;-2.006;2023-07-20T07:39:51;100972.88;;;29.53;36.87
66668;BME280;57205;51.438;-2.006;2023-07-20T07:42:18;100971.56;;;29.88;36.67
66668;BME280;57205;51.438;-2.006;2023-07-20T07:44:46;100971.66;;;30.12;35.41
66668;BME280;57205;51.438;-2.006;2023-07-20T07:47:11;100973.00;;;30.32;35.26
66668;BME280;57205;51.438;-2.006;2023-07-20T07:49:37;100967.09;;;30.37;34.73
66668;BME280;57205;51.438;-2.006;2023-07-20T07:52:03;100961.41;;;30.06;35.40
66668;BME280;57205;51.438;-2.006;2023-07-20T07:54:28;100966.47;;;30.90;33.17
66668;BME280;57205;51.438;-2.006;2023-07-20T07:56:54;100963.31;;;30.98;33.15
66668;BME280;57205;51.438;-2.006;2023-07-20T07:59:20;100956.84;;;30.45;33.01
66668;BME280;57205;51.438;-2.006;2023-07-20T08:01:45;100961.44;;;30.20;33.88
66668;BME280;57205;51.438;-2.006;2023-07-20T08:04:11;100959.25;;;30.64;33.81
66668;BME280;57205;51.438;-2.006;2023-07-20T08:06:36;100954.16;;;30.69;33.39
66668;BME280;57205;51.438;-2.006;2023-07-20T08:09:02;100955.41;;;30.90;33.10
66668;BME280;57205;51.438;-2.006;2023-07-20T08:11:29;100959.31;;;30.78;31.78
66668;BME280;57205;51.438;-2.006;2023-07-20T08:14:01;100956.88;;;30.52;31.83
66668;BME280;57205;51.438;-2.006;2023-07-20T08:16:28;100957.53;;;29.52;34.11
66668;BME280;57205;51.438;-2.006;2023-07-20T08:18:53;100960.44;;;29.73;33.18
66668;BME280;57205;51.438;-2.006;2023-07-20T08:21:19;100953.06;;;29.95;33.32
66668;BME280;57205;51.438;-2.006;2023-07-20T08:23:49;100946.34;;;29.93;33.34
66668;BME280;57205;51.438;-2.006;2023-07-20T08:26:14;100951.50;;;28.96;34.70
66668;BME280;57205;51.438;-2.006;2023-07-20T08:28:42;100947.16;;;28.95;35.23
66668;BME280;57205;51.438;-2.006;2023-07-20T08:31:07;100947.31;;;28.39;35.85
66668;BME280;57205;51.438;-2.006;2023-07-20T08:33:34;100951.00;;;28.83;36.05
66668;BME280;57205;51.438;-2.006;2023-07-20T08:36:01;100948.84;;;29.50;34.74
66668;BME280;57205;51.438;-2.006;2023-07-20T08:38:27;100941.63;;;29.90;33.40
66668;BME280;57205;51.438;-2.006;2023-07-20T08:40:53;100943.84;;;30.49;32.64
66668;BME280;57205;51.438;-2.006;2023-07-20T08:43:20;100937.91;;;30.43;32.73
66668;BME280;57205;51.438;-2.006;2023-07-20T08:45:46;100944.75;;;30.95;30.45
66668;BME280;57205;51.438;-2.006;2023-07-20T08:48:13;100945.81;;;30.52;30.70
66668;BME280;57205;51.438;-2.006;2023-07-20T08:50:39;100944.63;;;30.53;31.29
66668;BME280;57205;51.438;-2.006;2023-07-20T08:53:06;100948.91;;;30.33;31.21
66668;BME280;57205;51.438;-2.006;2023-07-20T08:55:34;100949.84;;;29.83;31.44
66668;BME280;57205;51.438;-2.006;2023-07-20T08:58:00;100948.06;;;30.25;31.13
66668;BME280;57205;51.438;-2.006;2023-07-20T09:00:27;100929.97;;;30.35;31.39
66668;BME280;57205;51.438;-2.006;2023-07-20T09:02:57;100945.81;;;30.45;30.94
66668;BME280;57205;51.438;-2.006;2023-07-20T09:05:23;100939.72;;;30.08;30.89
66668;BME280;57205;51.438;-2.006;2023-07-20T09:07:52;100937.78;;;30.19;29.88
66668;BME280;57205;51.438;-2.006;2023-07-20T09:10:23;100934.47;;;29.27;29.13
66668;BME280;57205;51.438;-2.006;2023-07-20T09:12:50;100937.97;;;29.78;30.81
66668;BME280;57205;51.438;-2.006;2023-07-20T09:15:16;100931.91;;;29.55;30.37
66668;BME280;57205;51.438;-2.006;2023-07-20T09:17:47;100933.41;;;30.04;29.90
66668;BME280;57205;51.438;-2.006;2023-07-20T09:20:15;100928.19;;;29.88;29.86
66668;BME280;57205;51.438;-2.006;2023-07-20T09:22:41;100936.94;;;30.04;28.37
66668;BME280;57205;51.438;-2.006;2023-07-20T09:25:11;100936.16;;;30.04;28.48
66668;BME280;57205;51.438;-2.006;2023-07-20T09:27:39;100934.66;;;30.20;28.20
66668;BME280;57205;51.438;-2.006;2023-07-20T09:30:05;100926.31;;;30.10;28.69
66668;BME280;57205;51.438;-2.006;2023-07-20T09:32:45;100916.25;;;30.56;28.76
66668;BME280;57205;51.438;-2.006;2023-07-20T09:35:14;100915.84;;;30.54;26.84
66668;BME280;57205;51.438;-2.006;2023-07-20T09:37:46;100912.56;;;30.20;28.05
66668;BME280;57205;51.438;-2.006;2023-07-20T09:40:16;100912.84;;;29.98;29.47
66668;BME280;57205;51.438;-2.006;2023-07-20T09:42:42;100920.00;;;30.09;29.51
66668;BME280;57205;51.438;-2.006;2023-07-20T09:45:08;100916.50;;;30.23;29.80
66668;BME280;57205;51.438;-2.006;2023-07-20T09:47:35;100917.38;;;30.44;29.61
66668;BME280;57205;51.438;-2.006;2023-07-20T09:50:02;100919.81;;;29.70;31.14
66668;BME280;57205;51.438;-2.006;2023-07-20T09:52:29;100915.00;;;30.36;30.72
66668;BME280;57205;51.438;-2.006;2023-07-20T09:54:55;100909.16;;;30.62;30.01
66668;BME280;57205;51.438;-2.006;2023-07-20T09:57:22;100907.09;;;30.31;30.87
66668;BME280;57205;51.438;-2.006;2023-07-20T09:59:48;100905.59;;;30.68;31.14
66668;BME280;57205;51.438;-2.006;2023-07-20T10:02:26;100903.19;;;30.42;31.59
66668;BME280;57205;51.438;-2.006;2023-07-20T10:04:56;100909.63;;;29.24;32.62
66668;BME280;57205;51.438;-2.006;2023-07-20T10:07:25;100914.75;;;29.79;32.05
66668;BME280;57205;51.438;-2.006;2023-07-20T10:09:52;100912.88;;;30.01;31.39
66668;BME280;57205;51.438;-2.006;2023-07-20T10:12:21;100906.75;;;29.67;32.56
66668;BME280;57205;51.438;-2.006;2023-07-20T10:14:57;100906.53;;;29.32;32.41
66668;BME280;57205;51.438;-2.006;2023-07-20T10:17:25;100912.22;;;29.57;31.82
66668;BME280;57205;51.438;-2.006;2023-07-20T10:19:54;100908.88;;;29.30;32.01
66668;BME280;57205;51.438;-2.006;2023-07-20T10:22:26;100909.22;;;28.78;33.30
66668;BME280;57205;51.438;-2.006;2023-07-20T10:24:52;100903.72;;;28.78;33.25
66668;BME280;57205;51.438;-2.006;2023-07-20T10:27:24;100904.16;;;28.83;33.42
66668;BME280;57205;51.438;-2.006;2023-07-20T10:29:51;100890.53;;;28.57;33.33
66668;BME280;57205;51.438;-2.006;2023-07-20T10:32:19;100893.06;;;28.76;33.22
66668;BME280;57205;51.438;-2.006;2023-07-20T10:34:57;100888.44;;;29.35;32.08
66668;BME280;57205;51.438;-2.006;2023-07-20T10:37:48;100891.69;;;29.51;31.99
66668;BME280;57205;51.438;-2.006;2023-07-20T10:40:31;100893.72;;;29.61;31.70
66668;BME280;57205;51.438;-2.006;2023-07-20T10:42:58;100889.81;;;29.08;33.05
66668;BME280;57205;51.438;-2.006;2023-07-20T10:45:49;100884.41;;;29.22;33.35
66668;BME280;57205;51.438;-2.006;2023-07-20T10:48:21;100885.56;;;28.73;33.39
66668;BME280;57205;51.438;-2.006;2023-07-20T10:51:13;100882.28;;;28.24;33.38
66668;BME280;57205;51.438;-2.006;2023-07-20T10:53:40;100885.28;;;27.53;34.44
66668;BME280;57205;51.438;-2.006;2023-07-20T10:56:11;100884.06;;;27.28;35.10
66668;BME280;57205;51.438;-2.006;2023-07-20T10:58:37;100881.81;;;27.07;35.31
66668;BME280;57205;51.438;-2.006;2023-07-20T11:01:04;100878.66;;;26.41;37.80
66668;BME280;57205;51.438;-2.006;2023-07-20T11:03:37;100863.13;;;26.29;38.39
66668;BME280;57205;51.438;-2.006;2023-07-20T11:06:35;100860.81;;;26.31;37.98
66668;BME280;57205;51.438;-2.006;2023-07-20T11:09:08;100866.31;;;26.73;38.16
66668;BME280;57205;51.438;-2.006;2023-07-20T11:11:43;100866.81;;;27.01;36.47
66668;BME280;57205;51.438;-2.006;2023-07-20T11:14:29;100870.22;;;26.72;35.25
66668;BME280;57205;51.438;-2.006;2023-07-20T11:17:12;100868.22;;;26.50;35.30
66668;BME280;57205;51.438;-2.006;2023-07-20T11:19:40;100856.16;;;26.13;36.11
66668;BME280;57205;51.438;-2.006;2023-07-20T11:22:07;100870.53;;;25.37;35.81
66668;BME280;57205;51.438;-2.006;2023-07-20T11:24:42;100854.75;;;25.30;35.98
66668;BME280;57205;51.438;-2.006;2023-07-20T11:27:08;100863.94;;;25.22;36.34
66668;BME280;57205;51.438;-2.006;2023-07-20T11:29:35;100864.50;;;25.12;36.69
66668;BME280;57205;51.438;-2.006;2023-07-20T11:32:02;100855.50;;;24.96;38.07
66668;BME280;57205;51.438;-2.006;2023-07-20T11:34:30;100857.34;;;24.92;38.68
66668;BME280;57205;51.438;-2.006;2023-07-20T11:36:55;100860.78;;;24.73;39.82
66668;BME280;57205;51.438;-2.006;2023-07-20T11:39:22;100858.06;;;24.73;39.62
66668;BME280;57205;51.438;-2.006;2023-07-20T11:41:52;100864.63;;;24.57;39.67
66668;BME280;57205;51.438;-2.006;2023-07-20T11:44:20;100860.47;;;24.75;40.84
66668;BME280;57205;51.438;-2.006;2023-07-20T11:47:06;100859.31;;;24.76;41.09
66668;BME280;57205;51.438;-2.006;2023-07-20T11:49:37;100851.44;;;24.90;40.57
66668;BME280;57205;51.438;-2.006;2023-07-20T11:52:07;100850.13;;;24.84;38.71
66668;BME280;57205;51.438;-2.006;2023-07-20T11:54:34;100846.47;;;25.11;38.37
66668;BME280;57205;51.438;-2.006;2023-07-20T11:57:03;100841.56;;;25.36;37.14
66668;BME280;57205;51.438;-2.006;2023-07-20T11:59:31;100839.56;;;25.67;38.00
66668;BME280;57205;51.438;-2.006;2023-07-20T12:01:57;100836.38;;;25.84;37.44
66668;BME280;57205;51.438;-2.006;2023-07-20T12:04:23;100834.63;;;26.15;37.10
66668;BME280;57205;51.438;-2.006;2023-07-20T12:06:48;100835.16;;;25.82;36.56
66668;BME280;57205;51.438;-2.006;2023-07-20T12:09:14;100828.44;;;25.79;36.76
66668;BME280;57205;51.438;-2.006;2023-07-20T12:11:44;100833.66;;;25.84;37.91
66668;BME280;57205;51.438;-2.006;2023-07-20T12:14:13;100820.19;;;25.79;38.09
66668;BME280;57205;51.438;-2.006;2023-07-20T12:16:38;100821.00;;;25.99;37.98
66668;BME280;57205;51.438;-2.006;2023-07-20T12:21:31;100819.75;;;25.39;36.85
66668;BME280;57205;51.438;-2.006;2023-07-20T12:23:58;100807.06;;;25.16;37.98
66668;BME280;57205;51.438;-2.006;2023-07-20T12:26:24;100813.16;;;25.09;39.81
66668;BME280;57205;51.438;-2.006;2023-07-20T12:28:51;100813.28;;;24.97;40.28
66668;BME280;57205;51.438;-2.006;2023-07-20T12:31:17;100804.16;;;25.08;40.71
66668;BME280;57205;51.438;-2.006;2023-07-20T12:33:42;100810.72;;;25.04;40.51
66668;BME280;57205;51.438;-2.006;2023-07-20T12:36:10;100805.53;;;24.83;39.87
66668;BME280;57205;51.438;-2.006;2023-07-20T12:38:36;100807.56;;;24.71;40.30
66668;BME280;57205;51.438;-2.006;2023-07-20T12:41:02;100803.31;;;24.58;40.16
66668;BME280;57205;51.438;-2.006;2023-07-20T12:43:28;100800.94;;;24.72;40.66
66668;BME280;57205;51.438;-2.006;2023-07-20T12:45:55;100801.53;;;24.81;41.01